sensor_id;sensor_type;location;lat;lon;timestamp;temperature;humidity
51175;DHT22;37240;50.104;20.010;2022-12-18T00:02:18;0.40;99.10
51175;DHT22;37240;50.104;20.010;2022-12-18T00:07:18;0.50;99.20
51175;DHT22;37240;50.104;20.010;2022-12-18T00:12:19;0.50;99.20
51175;DHT22;37240;50.104;20.010;2022-12-18T00:17:19;0.50;99.30
51175;DHT22;37240;50.104;20.010;2022-12-18T00:22:20;0.60;99.10
51175;DHT22;37240;50.104;20.010;2022-12-18T00:27:20;0.50;98.90
51175;DHT22;37240;50.104;20.010;2022-12-18T00:32:21;0.60;99.00
51175;DHT22;37240;50.104;20.010;2022-12-18T00:37:21;0.60;99.00
51175;DHT22;37240;50.104;20.010;2022-12-18T00:42:22;0.60;98.90
51175;DHT22;37240;50.104;20.010;2022-12-18T00:47:22;0.50;98.60
51175;DHT22;37240;50.104;20.010;2022-12-18T00:52:23;0.60;98.30
51175;DHT22;37240;50.104;20.010;2022-12-18T00:57:23;0.60;98.30
51175;DHT22;37240;50.104;20.010;2022-12-18T01:02:24;0.50;97.70
51175;DHT22;37240;50.104;20.010;2022-12-18T01:07:25;0.40;97.20
51175;DHT22;37240;50.104;20.010;2022-12-18T01:12:25;0.40;97.10
51175;DHT22;37240;50.104;20.010;2022-12-18T01:17:26;0.40;97.20
51175;DHT22;37240;50.104;20.010;2022-12-18T01:22:26;0.40;97.30
51175;DHT22;37240;50.104;20.010;2022-12-18T01:27:27;0.40;97.20
51175;DHT22;37240;50.104;20.010;2022-12-18T01:32:30;0.50;97.30
51175;DHT22;37240;50.104;20.010;2022-12-18T01:37:31;0.40;97.00
51175;DHT22;37240;50.104;20.010;2022-12-18T01:42:31;0.50;97.00
51175;DHT22;37240;50.104;20.010;2022-12-18T01:52:33;0.60;96.90
51175;DHT22;37240;50.104;20.010;2022-12-18T01:57:35;0.50;97.10
51175;DHT22;37240;50.104;20.010;2022-12-18T02:02:36;0.50;97.00
51175;DHT22;37240;50.104;20.010;2022-12-18T02:18:33;0.50;96.60
51175;DHT22;37240;50.104;20.010;2022-12-18T02:29:25;0.50;96.60
51175;DHT22;37240;50.104;20.010;2022-12-18T02:34:29;0.50;96.50
51175;DHT22;37240;50.104;20.010;2022-12-18T02:39:32;0.60;96.60
51175;DHT22;37240;50.104;20.010;2022-12-18T02:44:54;0.60;96.30
51175;DHT22;37240;50.104;20.010;2022-12-18T02:55:22;0.50;96.50
51175;DHT22;37240;50.104;20.010;2022-12-18T03:00:31;0.50;96.40
51175;DHT22;37240;50.104;20.010;2022-12-18T03:11:01;0.50;96.60
51175;DHT22;37240;50.104;20.010;2022-12-18T03:16:05;0.50;96.80
51175;DHT22;37240;50.104;20.010;2022-12-18T03:21:07;0.50;96.90
51175;DHT22;37240;50.104;20.010;2022-12-18T03:26:12;0.50;97.00
51175;DHT22;37240;50.104;20.010;2022-12-18T03:31:15;0.60;97.30
51175;DHT22;37240;50.104;20.010;2022-12-18T03:36:16;0.50;97.50
51175;DHT22;37240;50.104;20.010;2022-12-18T03:41:29;0.60;97.80
51175;DHT22;37240;50.104;20.010;2022-12-18T03:52:21;0.50;98.10
51175;DHT22;37240;50.104;20.010;2022-12-18T03:57:28;0.50;98.20
51175;DHT22;37240;50.104;20.010;2022-12-18T04:02:30;0.50;98.20
51175;DHT22;37240;50.104;20.010;2022-12-18T04:07:32;0.50;98.40
51175;DHT22;37240;50.104;20.010;2022-12-18T04:12:32;0.50;98.40
51175;DHT22;37240;50.104;20.010;2022-12-18T04:17:33;0.60;98.50
51175;DHT22;37240;50.104;20.010;2022-12-18T04:22:33;0.50;98.40
51175;DHT22;37240;50.104;20.010;2022-12-18T04:27:34;0.50;98.40
51175;DHT22;37240;50.104;20.010;2022-12-18T04:32:35;0.50;98.50
51175;DHT22;37240;50.104;20.010;2022-12-18T04:37:35;0.50;98.60
51175;DHT22;37240;50.104;20.010;2022-12-18T04:42:36;0.50;98.70
51175;DHT22;37240;50.104;20.010;2022-12-18T04:47:36;0.50;98.80
51175;DHT22;37240;50.104;20.010;2022-12-18T04:52:37;0.40;98.80
51175;DHT22;37240;50.104;20.010;2022-12-18T04:57:37;0.40;98.80
51175;DHT22;37240;50.104;20.010;2022-12-18T05:02:38;0.40;98.90
51175;DHT22;37240;50.104;20.010;2022-12-18T05:07:39;0.40;99.10
51175;DHT22;37240;50.104;20.010;2022-12-18T05:12:39;0.30;99.00
51175;DHT22;37240;50.104;20.010;2022-12-18T05:17:40;0.30;99.00
51175;DHT22;37240;50.104;20.010;2022-12-18T05:22:40;0.30;99.20
51175;DHT22;37240;50.104;20.010;2022-12-18T05:27:41;0.30;99.10
51175;DHT22;37240;50.104;20.010;2022-12-18T05:32:42;0.30;99.10
51175;DHT22;37240;50.104;20.010;2022-12-18T05:37:43;0.30;99.10
51175;DHT22;37240;50.104;20.010;2022-12-18T05:42:43;0.30;99.10
51175;DHT22;37240;50.104;20.010;2022-12-18T05:47:44;0.30;99.10
51175;DHT22;37240;50.104;20.010;2022-12-18T05:52:44;0.30;99.20
51175;DHT22;37240;50.104;20.010;2022-12-18T05:57:45;0.30;99.20
51175;DHT22;37240;50.104;20.010;2022-12-18T06:02:48;0.30;99.20
51175;DHT22;37240;50.104;20.010;2022-12-18T06:07:49;0.30;99.20
51175;DHT22;37240;50.104;20.010;2022-12-18T06:12:49;0.30;99.20
51175;DHT22;37240;50.104;20.010;2022-12-18T06:17:50;0.20;99.40
51175;DHT22;37240;50.104;20.010;2022-12-18T06:22:51;0.20;99.40
51175;DHT22;37240;50.104;20.010;2022-12-18T06:27:51;0.30;99.40
51175;DHT22;37240;50.104;20.010;2022-12-18T06:32:52;0.30;99.30
51175;DHT22;37240;50.104;20.010;2022-12-18T06:37:52;0.30;99.20
51175;DHT22;37240;50.104;20.010;2022-12-18T06:42:53;0.30;99.20
51175;DHT22;37240;50.104;20.010;2022-12-18T06:47:53;0.30;99.30
51175;DHT22;37240;50.104;20.010;2022-12-18T06:52:54;0.30;99.20
51175;DHT22;37240;50.104;20.010;2022-12-18T06:57:54;0.30;99.10
51175;DHT22;37240;50.104;20.010;2022-12-18T07:02:55;0.20;99.20
51175;DHT22;37240;50.104;20.010;2022-12-18T07:07:55;0.30;99.10
51175;DHT22;37240;50.104;20.010;2022-12-18T07:12:56;0.30;99.00
51175;DHT22;37240;50.104;20.010;2022-12-18T07:17:56;0.30;99.00
51175;DHT22;37240;50.104;20.010;2022-12-18T07:22:57;0.30;99.10
51175;DHT22;37240;50.104;20.010;2022-12-18T07:27:57;0.40;98.90
51175;DHT22;37240;50.104;20.010;2022-12-18T07:32:58;0.50;98.80
51175;DHT22;37240;50.104;20.010;2022-12-18T07:37:58;0.50;98.70
51175;DHT22;37240;50.104;20.010;2022-12-18T07:42:59;0.60;98.70
51175;DHT22;37240;50.104;20.010;2022-12-18T07:47:59;0.60;98.70
51175;DHT22;37240;50.104;20.010;2022-12-18T07:53:00;0.70;98.60
51175;DHT22;37240;50.104;20.010;2022-12-18T07:58:02;0.70;98.40
51175;DHT22;37240;50.104;20.010;2022-12-18T08:03:02;0.70;98.30
51175;DHT22;37240;50.104;20.010;2022-12-18T08:08:03;0.80;98.60
51175;DHT22;37240;50.104;20.010;2022-12-18T08:13:03;0.90;98.20
51175;DHT22;37240;50.104;20.010;2022-12-18T08:18:04;0.90;98.00
51175;DHT22;37240;50.104;20.010;2022-12-18T08:23:05;1.00;98.00
51175;DHT22;37240;50.104;20.010;2022-12-18T08:28:05;1.10;97.60
51175;DHT22;37240;50.104;20.010;2022-12-18T08:33:06;1.20;97.40
51175;DHT22;37240;50.104;20.010;2022-12-18T08:38:06;1.20;97.30
51175;DHT22;37240;50.104;20.010;2022-12-18T08:43:09;1.20;97.20
51175;DHT22;37240;50.104;20.010;2022-12-18T08:48:09;1.30;97.00
51175;DHT22;37240;50.104;20.010;2022-12-18T08:53:10;1.40;97.00
51175;DHT22;37240;50.104;20.010;2022-12-18T08:58:10;1.60;96.60
51175;DHT22;37240;50.104;20.010;2022-12-18T09:03:15;1.70;96.20
51175;DHT22;37240;50.104;20.010;2022-12-18T09:08:16;1.70;96.00
51175;DHT22;37240;50.104;20.010;2022-12-18T09:13:17;1.80;95.60
51175;DHT22;37240;50.104;20.010;2022-12-18T09:18:20;1.80;95.30
51175;DHT22;37240;50.104;20.010;2022-12-18T09:23:21;1.80;95.60
51175;DHT22;37240;50.104;20.010;2022-12-18T09:28:22;1.80;95.30
51175;DHT22;37240;50.104;20.010;2022-12-18T09:33:22;1.90;95.10
51175;DHT22;37240;50.104;20.010;2022-12-18T09:38:23;2.10;94.60
51175;DHT22;37240;50.104;20.010;2022-12-18T09:43:28;2.30;94.60
51175;DHT22;37240;50.104;20.010;2022-12-18T09:48:36;2.40;93.90
51175;DHT22;37240;50.104;20.010;2022-12-18T09:53:39;2.40;93.40
51175;DHT22;37240;50.104;20.010;2022-12-18T09:59:00;2.30;93.40
51175;DHT22;37240;50.104;20.010;2022-12-18T10:04:01;2.30;93.40
51175;DHT22;37240;50.104;20.010;2022-12-18T10:09:27;2.30;93.40
51175;DHT22;37240;50.104;20.010;2022-12-18T10:30:22;2.40;95.10
51175;DHT22;37240;50.104;20.010;2022-12-18T10:35:26;2.40;93.40
51175;DHT22;37240;50.104;20.010;2022-12-18T10:40:27;2.30;93.60
51175;DHT22;37240;50.104;20.010;2022-12-18T10:45:27;2.50;93.90
51175;DHT22;37240;50.104;20.010;2022-12-18T10:50:33;2.60;93.00
51175;DHT22;37240;50.104;20.010;2022-12-18T10:55:37;2.60;93.00
51175;DHT22;37240;50.104;20.010;2022-12-18T11:00:38;2.70;93.00
51175;DHT22;37240;50.104;20.010;2022-12-18T11:05:39;2.70;93.10
51175;DHT22;37240;50.104;20.010;2022-12-18T11:10:39;2.90;92.70
51175;DHT22;37240;50.104;20.010;2022-12-18T11:15:47;2.90;91.60
51175;DHT22;37240;50.104;20.010;2022-12-18T11:21:08;2.80;91.60
51175;DHT22;37240;50.104;20.010;2022-12-18T11:26:08;2.80;91.40
51175;DHT22;37240;50.104;20.010;2022-12-18T11:36:22;2.70;91.10
51175;DHT22;37240;50.104;20.010;2022-12-18T11:41:34;2.70;91.30
51175;DHT22;37240;50.104;20.010;2022-12-18T11:46:38;2.70;91.10
51175;DHT22;37240;50.104;20.010;2022-12-18T11:52:10;2.60;90.60
51175;DHT22;37240;50.104;20.010;2022-12-18T11:57:24;2.50;90.60
51175;DHT22;37240;50.104;20.010;2022-12-18T12:18:06;2.30;90.00
51175;DHT22;37240;50.104;20.010;2022-12-18T12:34:09;2.20;91.10
51175;DHT22;37240;50.104;20.010;2022-12-18T12:39:17;2.30;90.60
51175;DHT22;37240;50.104;20.010;2022-12-18T12:44:29;2.10;90.60
51175;DHT22;37240;50.104;20.010;2022-12-18T12:49:33;2.20;90.60
51175;DHT22;37240;50.104;20.010;2022-12-18T12:54:34;2.10;90.60
51175;DHT22;37240;50.104;20.010;2022-12-18T13:20:42;1.80;90.70
51175;DHT22;37240;50.104;20.010;2022-12-18T13:25:43;1.70;90.80
51175;DHT22;37240;50.104;20.010;2022-12-18T13:30:47;1.60;90.60
51175;DHT22;37240;50.104;20.010;2022-12-18T13:46:21;1.00;91.60
51175;DHT22;37240;50.104;20.010;2022-12-18T13:51:24;0.80;91.80
51175;DHT22;37240;50.104;20.010;2022-12-18T13:56:28;0.80;92.20
51175;DHT22;37240;50.104;20.010;2022-12-18T14:01:29;0.50;92.60
51175;DHT22;37240;50.104;20.010;2022-12-18T14:06:29;0.50;93.10
51175;DHT22;37240;50.104;20.010;2022-12-18T14:11:30;0.50;93.20
51175;DHT22;37240;50.104;20.010;2022-12-18T14:16:31;0.40;93.20
51175;DHT22;37240;50.104;20.010;2022-12-18T14:21:33;0.20;93.20
51175;DHT22;37240;50.104;20.010;2022-12-18T14:26:34;0.20;93.50
51175;DHT22;37240;50.104;20.010;2022-12-18T14:31:34;-0.10;93.60
51175;DHT22;37240;50.104;20.010;2022-12-18T14:36:35;-0.50;94.50
51175;DHT22;37240;50.104;20.010;2022-12-18T14:41:35;-0.60;94.80
51175;DHT22;37240;50.104;20.010;2022-12-18T14:46:43;-0.70;94.70
51175;DHT22;37240;50.104;20.010;2022-12-18T14:52:05;-0.90;95.30
51175;DHT22;37240;50.104;20.010;2022-12-18T14:57:23;-1.10;95.90
51175;DHT22;37240;50.104;20.010;2022-12-18T15:02:26;-1.10;96.80
51175;DHT22;37240;50.104;20.010;2022-12-18T15:07:46;-1.30;96.40
51175;DHT22;37240;50.104;20.010;2022-12-18T15:13:08;-1.30;96.50
51175;DHT22;37240;50.104;20.010;2022-12-18T15:23:30;-1.50;96.80
51175;DHT22;37240;50.104;20.010;2022-12-18T15:28:39;-1.60;97.50
51175;DHT22;37240;50.104;20.010;2022-12-18T15:34:30;-1.60;96.90
51175;DHT22;37240;50.104;20.010;2022-12-18T15:39:05;-1.70;96.60
51175;DHT22;37240;50.104;20.010;2022-12-18T15:44:22;-1.70;96.80
51175;DHT22;37240;50.104;20.010;2022-12-18T15:49:23;-2.00;97.10
51175;DHT22;37240;50.104;20.010;2022-12-18T15:54:23;-2.10;97.30
51175;DHT22;37240;50.104;20.010;2022-12-18T15:59:24;-2.10;97.60
51175;DHT22;37240;50.104;20.010;2022-12-18T16:04:25;-2.30;98.10
51175;DHT22;37240;50.104;20.010;2022-12-18T16:09:25;-2.40;98.20
51175;DHT22;37240;50.104;20.010;2022-12-18T16:14:30;-2.40;98.00
51175;DHT22;37240;50.104;20.010;2022-12-18T16:19:31;-2.40;98.10
51175;DHT22;37240;50.104;20.010;2022-12-18T16:24:33;-2.50;97.80
51175;DHT22;37240;50.104;20.010;2022-12-18T16:29:33;-2.50;97.80
51175;DHT22;37240;50.104;20.010;2022-12-18T16:34:34;-2.70;98.20
51175;DHT22;37240;50.104;20.010;2022-12-18T16:39:36;-2.90;98.40
51175;DHT22;37240;50.104;20.010;2022-12-18T16:44:37;-2.90;98.50
51175;DHT22;37240;50.104;20.010;2022-12-18T16:49:37;-3.00;98.40
51175;DHT22;37240;50.104;20.010;2022-12-18T16:54:38;-3.00;98.60
51175;DHT22;37240;50.104;20.010;2022-12-18T16:59:38;-3.00;98.70
51175;DHT22;37240;50.104;20.010;2022-12-18T17:04:39;-3.10;98.90
51175;DHT22;37240;50.104;20.010;2022-12-18T17:09:40;-3.20;99.90
51175;DHT22;37240;50.104;20.010;2022-12-18T17:14:43;-3.20;99.50
51175;DHT22;37240;50.104;20.010;2022-12-18T17:19:44;-3.10;99.10
51175;DHT22;37240;50.104;20.010;2022-12-18T17:24:45;-3.30;98.90
51175;DHT22;37240;50.104;20.010;2022-12-18T17:29:46;-3.30;98.90
51175;DHT22;37240;50.104;20.010;2022-12-18T17:34:46;-3.40;99.30
51175;DHT22;37240;50.104;20.010;2022-12-18T17:39:47;-3.50;99.10
51175;DHT22;37240;50.104;20.010;2022-12-18T17:44:48;-3.60;99.30
51175;DHT22;37240;50.104;20.010;2022-12-18T17:49:48;-3.70;99.60
51175;DHT22;37240;50.104;20.010;2022-12-18T17:54:49;-3.80;99.70
51175;DHT22;37240;50.104;20.010;2022-12-18T17:59:49;-3.80;99.60
51175;DHT22;37240;50.104;20.010;2022-12-18T18:04:50;-3.70;99.30
51175;DHT22;37240;50.104;20.010;2022-12-18T18:09:50;-3.90;99.20
51175;DHT22;37240;50.104;20.010;2022-12-18T18:14:51;-4.00;99.40
51175;DHT22;37240;50.104;20.010;2022-12-18T18:19:51;-4.10;99.90
51175;DHT22;37240;50.104;20.010;2022-12-18T18:24:52;-4.00;99.90
51175;DHT22;37240;50.104;20.010;2022-12-18T18:29:52;-4.00;99.90
51175;DHT22;37240;50.104;20.010;2022-12-18T18:34:53;-4.00;99.90
51175;DHT22;37240;50.104;20.010;2022-12-18T18:39:53;-4.00;99.90
51175;DHT22;37240;50.104;20.010;2022-12-18T18:44:54;-4.00;99.90
51175;DHT22;37240;50.104;20.010;2022-12-18T18:49:54;-4.00;99.90
51175;DHT22;37240;50.104;20.010;2022-12-18T18:54:55;-3.90;99.90
51175;DHT22;37240;50.104;20.010;2022-12-18T18:59:55;-3.70;99.90
51175;DHT22;37240;50.104;20.010;2022-12-18T19:04:56;-3.70;99.90
51175;DHT22;37240;50.104;20.010;2022-12-18T19:09:57;-3.80;99.90
51175;DHT22;37240;50.104;20.010;2022-12-18T19:14:58;-3.80;99.90
51175;DHT22;37240;50.104;20.010;2022-12-18T19:19:59;-3.90;99.90
51175;DHT22;37240;50.104;20.010;2022-12-18T19:24:59;-3.90;99.90
51175;DHT22;37240;50.104;20.010;2022-12-18T19:30:00;-3.90;99.90
51175;DHT22;37240;50.104;20.010;2022-12-18T19:35:00;-4.00;99.90
51175;DHT22;37240;50.104;20.010;2022-12-18T19:40:01;-3.90;99.90
51175;DHT22;37240;50.104;20.010;2022-12-18T19:45:02;-4.00;99.90
51175;DHT22;37240;50.104;20.010;2022-12-18T19:50:02;-4.10;99.90
51175;DHT22;37240;50.104;20.010;2022-12-18T19:55:03;-4.20;99.90
51175;DHT22;37240;50.104;20.010;2022-12-18T20:00:04;-4.30;99.90
51175;DHT22;37240;50.104;20.010;2022-12-18T20:05:08;-4.40;99.90
51175;DHT22;37240;50.104;20.010;2022-12-18T20:10:12;-4.40;99.90
51175;DHT22;37240;50.104;20.010;2022-12-18T20:15:13;-4.40;99.90
51175;DHT22;37240;50.104;20.010;2022-12-18T20:20:13;-4.50;99.90
51175;DHT22;37240;50.104;20.010;2022-12-18T20:25:14;-4.50;99.90
51175;DHT22;37240;50.104;20.010;2022-12-18T20:30:14;-4.50;99.90
51175;DHT22;37240;50.104;20.010;2022-12-18T20:35:15;-4.50;99.90
51175;DHT22;37240;50.104;20.010;2022-12-18T20:40:15;-4.50;99.90
51175;DHT22;37240;50.104;20.010;2022-12-18T20:45:16;-4.70;99.90
51175;DHT22;37240;50.104;20.010;2022-12-18T20:50:17;-4.70;99.90
51175;DHT22;37240;50.104;20.010;2022-12-18T20:55:17;-4.80;99.90
51175;DHT22;37240;50.104;20.010;2022-12-18T21:00:18;-4.80;99.90
51175;DHT22;37240;50.104;20.010;2022-12-18T21:05:19;-4.90;99.90
51175;DHT22;37240;50.104;20.010;2022-12-18T21:10:19;-5.00;99.90
51175;DHT22;37240;50.104;20.010;2022-12-18T21:15:20;-5.00;99.90
51175;DHT22;37240;50.104;20.010;2022-12-18T21:20:21;-5.00;99.90
51175;DHT22;37240;50.104;20.010;2022-12-18T21:25:22;-5.10;99.90
51175;DHT22;37240;50.104;20.010;2022-12-18T21:30:22;-5.20;99.90
51175;DHT22;37240;50.104;20.010;2022-12-18T21:35:23;-5.20;99.90
51175;DHT22;37240;50.104;20.010;2022-12-18T21:40:24;-5.20;99.90
51175;DHT22;37240;50.104;20.010;2022-12-18T21:45:24;-5.20;99.90
51175;DHT22;37240;50.104;20.010;2022-12-18T21:50:25;-5.20;99.90
51175;DHT22;37240;50.104;20.010;2022-12-18T21:55:25;-5.30;99.90
51175;DHT22;37240;50.104;20.010;2022-12-18T22:00:26;-5.30;99.90
51175;DHT22;37240;50.104;20.010;2022-12-18T22:05:26;-5.30;99.90
51175;DHT22;37240;50.104;20.010;2022-12-18T22:10:27;-5.30;99.90
51175;DHT22;37240;50.104;20.010;2022-12-18T22:15:27;-5.30;99.90
51175;DHT22;37240;50.104;20.010;2022-12-18T22:20:29;-5.30;99.90
51175;DHT22;37240;50.104;20.010;2022-12-18T22:25:29;-5.50;99.90
51175;DHT22;37240;50.104;20.010;2022-12-18T22:30:30;-5.40;99.90
51175;DHT22;37240;50.104;20.010;2022-12-18T22:35:30;-5.30;99.90
51175;DHT22;37240;50.104;20.010;2022-12-18T22:40:31;-5.10;99.90
51175;DHT22;37240;50.104;20.010;2022-12-18T22:45:31;-5.10;99.90
51175;DHT22;37240;50.104;20.010;2022-12-18T22:50:32;-5.20;99.90
51175;DHT22;37240;50.104;20.010;2022-12-18T22:55:33;-5.30;99.90
51175;DHT22;37240;50.104;20.010;2022-12-18T23:00:33;-5.30;99.90
51175;DHT22;37240;50.104;20.010;2022-12-18T23:05:34;-5.50;99.90
51175;DHT22;37240;50.104;20.010;2022-12-18T23:10:37;-5.60;99.90
51175;DHT22;37240;50.104;20.010;2022-12-18T23:15:41;-5.80;99.90
51175;DHT22;37240;50.104;20.010;2022-12-18T23:20:42;-5.80;99.90
51175;DHT22;37240;50.104;20.010;2022-12-18T23:25:43;-5.70;99.90
51175;DHT22;37240;50.104;20.010;2022-12-18T23:30:43;-5.70;99.90
51175;DHT22;37240;50.104;20.010;2022-12-18T23:35:44;-5.70;99.90
51175;DHT22;37240;50.104;20.010;2022-12-18T23:40:44;-5.80;99.90
51175;DHT22;37240;50.104;20.010;2022-12-18T23:45:45;-5.80;99.90
51175;DHT22;37240;50.104;20.010;2022-12-18T23:50:45;-5.80;99.90
51175;DHT22;37240;50.104;20.010;2022-12-18T23:55:46;-5.80;99.90
